createdAt,value
2022-09-21T00:01:24.561Z,102333.69
2022-09-21T00:05:26.448Z,102336.34
2022-09-21T00:09:27.873Z,102345.25
2022-09-21T00:13:29.743Z,102341.75
2022-09-21T00:17:31.160Z,102344.38
2022-09-21T00:21:34.074Z,102343.50
2022-09-21T00:25:35.851Z,102345.31
2022-09-21T00:29:37.324Z,102342.69
2022-09-21T00:33:40.903Z,102345.38
2022-09-21T00:37:42.290Z,102350.75
2022-09-21T00:41:43.735Z,102352.53
2022-09-21T00:45:48.792Z,102340.97
2022-09-21T00:49:54.601Z,102349.84
2022-09-21T00:54:02.510Z,102348.03
2022-09-21T00:58:10.151Z,102347.19
2022-09-21T01:02:11.827Z,102353.38
2022-09-21T01:06:16.598Z,102353.41
2022-09-21T01:10:19.412Z,102356.09
2022-09-21T01:14:40.507Z,102350.72
2022-09-21T01:18:51.666Z,102360.53
2022-09-21T01:23:18.543Z,102353.41
2022-09-21T01:27:39.616Z,102360.53
2022-09-21T01:31:49.234Z,102364.97
2022-09-21T01:35:55.183Z,102365.88
2022-09-21T01:40:02.325Z,102366.75
2022-09-21T01:44:10.904Z,102366.78
2022-09-21T01:48:15.566Z,102367.63
2022-09-21T01:52:22.818Z,102364.06
2022-09-21T01:56:33.082Z,102372.88
2022-09-21T02:00:36.680Z,102368.53
2022-09-21T02:04:39.617Z,102370.31
2022-09-21T02:08:41.307Z,102375.63
2022-09-21T02:12:42.776Z,102375.66
2022-09-21T02:17:05.312Z,102377.41
2022-09-21T02:21:15.828Z,102369.44
2022-09-21T02:25:37.264Z,102373.88
2022-09-21T02:29:52.090Z,102369.41
2022-09-21T02:33:59.771Z,102380.09
2022-09-21T02:38:10.945Z,102380.09
2022-09-21T02:42:20.272Z,102380.09
2022-09-21T02:46:28.633Z,102383.66
2022-09-21T02:50:38.852Z,102385.31
2022-09-21T02:54:44.381Z,102387.19
2022-09-21T02:58:50.981Z,102381.84
2022-09-21T03:02:52.424Z,102381.78
2022-09-21T03:06:53.967Z,102388.00
2022-09-21T03:10:55.455Z,102390.66
2022-09-21T03:14:56.865Z,102392.44
2022-09-21T03:18:58.268Z,102393.31
2022-09-21T03:23:00.665Z,102389.72
2022-09-21T03:27:02.114Z,102390.59
2022-09-21T03:31:03.754Z,102394.16
2022-09-21T03:35:05.719Z,102393.25
2022-09-21T03:39:07.132Z,102395.88
2022-09-21T03:43:08.546Z,102392.34
2022-09-21T03:47:09.955Z,102404.75
2022-09-21T03:51:11.375Z,102403.03
2022-09-21T03:55:12.773Z,102415.50
2022-09-21T03:59:14.570Z,102404.84
2022-09-21T04:03:16.019Z,102419.06
2022-09-21T04:07:17.519Z,102420.81
2022-09-21T04:11:22.950Z,102418.13
2022-09-21T04:15:24.512Z,102422.56
2022-09-21T04:19:25.975Z,102427.88
2022-09-21T04:23:27.608Z,102416.34
2022-09-21T04:27:29.265Z,102414.63
2022-09-21T04:31:30.945Z,102422.56
2022-09-21T04:35:32.421Z,102417.19
2022-09-21T04:39:34.963Z,102415.31
2022-09-21T04:43:36.497Z,102416.25
2022-09-21T04:47:37.958Z,102412.66
2022-09-21T04:51:39.368Z,102415.28
2022-09-21T04:55:40.748Z,102421.50
2022-09-21T04:59:42.183Z,102422.50
2022-09-21T05:03:43.658Z,102420.63
2022-09-21T05:07:45.085Z,102432.13
2022-09-21T05:11:46.513Z,102427.47
2022-09-21T05:15:47.960Z,102432.88
2022-09-21T05:19:50.739Z,102439.19
2022-09-21T05:23:52.192Z,102443.59
2022-09-21T05:27:53.601Z,102443.00
2022-09-21T05:32:01.412Z,102451.00
2022-09-21T05:36:21.187Z,102450.00
2022-09-21T05:40:22.994Z,102448.59
2022-09-21T05:44:25.583Z,102457.28
2022-09-21T05:48:36.077Z,102459.28
2022-09-21T05:53:04.406Z,102454.84
2022-09-21T05:57:17.570Z,102464.63
2022-09-21T06:01:46.260Z,102459.28
2022-09-21T06:05:47.728Z,102460.16
2022-09-21T06:09:49.132Z,102461.88
2022-09-21T06:13:50.546Z,102467.13
2022-09-21T06:17:52.050Z,102469.75
2022-09-21T06:21:53.640Z,102467.81
2022-09-21T06:25:58.421Z,102484.75
2022-09-21T06:30:00.266Z,102475.69
2022-09-21T06:34:01.882Z,102474.63
2022-09-21T06:38:06.227Z,102478.09
2022-09-21T06:42:07.894Z,102480.53
2022-09-21T06:46:09.854Z,102478.19
2022-09-21T06:50:11.330Z,102473.28
2022-09-21T06:54:12.759Z,102477.41
2022-09-21T06:58:14.208Z,102481.47
2022-09-21T07:02:15.994Z,102485.94
2022-09-21T07:06:18.597Z,102493.72
2022-09-21T07:10:20.918Z,102495.41
2022-09-21T07:14:23.300Z,102492.06
2022-09-21T07:18:25.282Z,102497.06
2022-09-21T07:22:28.835Z,102495.50
2022-09-21T07:26:30.299Z,102497.63
2022-09-21T07:30:31.748Z,102510.19
2022-09-21T07:34:37.160Z,102507.72
2022-09-21T07:38:41.001Z,102508.19
2022-09-21T07:42:44.860Z,102515.41
2022-09-21T07:46:48.747Z,102514.94
2022-09-21T07:50:50.306Z,102513.78
2022-09-21T07:54:51.712Z,102516.16
2022-09-21T07:59:08.657Z,102519.75
2022-09-21T08:03:10.867Z,102522.69
2022-09-21T08:07:13.334Z,102513.81
2022-09-21T08:11:17.437Z,102514.69
2022-09-21T08:15:43.906Z,102514.59
2022-09-21T08:19:40.689Z,102519.72
2022-09-21T08:23:42.637Z,102523.38
2022-09-21T08:27:44.146Z,102516.63
2022-09-21T08:31:46.661Z,102524.81
2022-09-21T08:35:55.499Z,102525.03
2022-09-21T08:39:56.926Z,102521.63
2022-09-21T08:44:05.241Z,102521.25
2022-09-21T08:48:16.275Z,102516.16
2022-09-21T08:52:21.482Z,102524.06
2022-09-21T08:56:36.819Z,102521.38
2022-09-21T09:00:47.902Z,102525.09
2022-09-21T09:05:25.796Z,102530.97
2022-09-21T09:09:35.981Z,102532.44
2022-09-21T09:13:57.336Z,102533.31
2022-09-21T09:18:09.586Z,102532.16
2022-09-21T09:22:16.637Z,102525.81
2022-09-21T09:27:01.154Z,102528.59
2022-09-21T09:31:18.369Z,102532.00
2022-09-21T09:35:26.262Z,102539.16
2022-09-21T09:39:31.010Z,102541.81
2022-09-21T09:43:56.968Z,102539.22
2022-09-21T09:48:16.882Z,102533.03
2022-09-21T09:52:18.372Z,102545.03
2022-09-21T09:56:19.975Z,102539.22
2022-09-21T10:00:22.209Z,102542.72
2022-09-21T10:04:23.699Z,102537.09
2022-09-21T10:08:48.476Z,102537.09
2022-09-21T10:12:52.550Z,102539.50
2022-09-21T10:16:56.255Z,102534.22
2022-09-21T10:21:03.002Z,102540.69
2022-09-21T10:25:06.175Z,102534.56
2022-09-21T10:29:18.539Z,102528.72
2022-09-21T10:33:22.053Z,102531.81
2022-09-21T10:37:35.678Z,102543.13
2022-09-21T10:41:38.491Z,102533.91
2022-09-21T10:45:55.046Z,102534.00
2022-09-21T10:50:00.436Z,102532.38
2022-09-21T10:54:08.932Z,102528.63
2022-09-21T10:58:12.472Z,102534.03
2022-09-21T11:02:32.759Z,102530.47
2022-09-21T11:07:02.037Z,102538.91
2022-09-21T11:11:13.712Z,102541.66
2022-09-21T11:15:38.834Z,102542.22
2022-09-21T11:20:06.768Z,102544.28
2022-09-21T11:24:52.066Z,102541.97
2022-09-21T11:29:01.964Z,102539.81
2022-09-21T11:33:22.490Z,102536.03
2022-09-21T11:37:48.788Z,102536.03
2022-09-21T11:42:15.174Z,102540.66
2022-09-21T11:46:46.251Z,102547.41
2022-09-21T11:51:01.616Z,102542.56
2022-09-21T11:55:16.636Z,102542.56
2022-09-21T11:59:40.020Z,102537.97
2022-09-21T12:03:56.117Z,102535.41
2022-09-21T12:08:37.779Z,102542.41
2022-09-21T12:12:54.694Z,102532.78
2022-09-21T12:17:39.686Z,102534.94
2022-09-21T12:21:47.403Z,102537.66
2022-09-21T12:25:57.174Z,102539.19
2022-09-21T12:30:03.932Z,102536.44
2022-09-21T12:34:11.941Z,102534.28
2022-09-21T12:38:36.316Z,102534.19
2022-09-21T12:42:48.635Z,102537.28
2022-09-21T12:47:13.249Z,102545.16
2022-09-21T12:51:24.572Z,102532.78
2022-09-21T12:55:59.008Z,102535.59
2022-09-21T13:00:14.183Z,102528.19
2022-09-21T13:04:27.676Z,102521.09
2022-09-21T13:08:40.835Z,102523.22
2022-09-21T13:12:45.977Z,102531.44
2022-09-21T13:16:57.512Z,102530.28
2022-09-21T13:20:59.355Z,102520.94
2022-09-21T13:25:20.185Z,102524.44
2022-09-21T13:29:22.113Z,102520.34
2022-09-21T13:33:23.685Z,102521.16
2022-09-21T13:37:29.825Z,102514.34
2022-09-21T13:41:51.921Z,102511.69
2022-09-21T13:45:54.886Z,102507.34
2022-09-21T13:50:00.675Z,102503.69
2022-09-21T13:54:03.837Z,102512.16
2022-09-21T13:58:17.495Z,102512.38
2022-09-21T14:02:35.240Z,102505.91
2022-09-21T14:06:43.844Z,102502.28
2022-09-21T14:10:50.712Z,102501.53
2022-09-21T14:15:17.974Z,102505.06
2022-09-21T14:19:19.386Z,102497.38
2022-09-21T14:23:21.396Z,102495.91
2022-09-21T14:27:28.911Z,102500.06
2022-09-21T14:31:34.375Z,102502.63
2022-09-21T14:35:43.075Z,102503.00
2022-09-21T14:39:46.325Z,102497.63
2022-09-21T14:43:53.747Z,102498.16
2022-09-21T14:48:30.580Z,102490.78
2022-09-21T14:53:18.111Z,102494.84
2022-09-21T14:57:20.009Z,102498.09
2022-09-21T15:01:38.553Z,102492.06
2022-09-21T15:05:49.655Z,102488.66
2022-09-21T15:10:40.149Z,102487.72
2022-09-21T15:14:46.382Z,102480.19
2022-09-21T15:18:51.044Z,102481.19
2022-09-21T15:22:59.857Z,102472.41
2022-09-21T15:27:07.023Z,102476.94
2022-09-21T15:31:09.104Z,102481.28
2022-09-21T15:35:23.443Z,102476.88
2022-09-21T15:39:30.147Z,102477.16
2022-09-21T15:43:34.311Z,102482.16
2022-09-21T15:47:35.806Z,102478.38
2022-09-21T15:51:40.725Z,102478.56
2022-09-21T15:55:47.303Z,102479.28
2022-09-21T15:59:48.736Z,102469.19
2022-09-21T16:04:04.305Z,102477.13
2022-09-21T16:08:17.629Z,102472.84
2022-09-21T16:12:33.745Z,102474.03
2022-09-21T16:17:06.331Z,102473.28
2022-09-21T16:21:13.975Z,102479.38
2022-09-21T16:25:34.544Z,102477.59
2022-09-21T16:29:42.961Z,102471.00
2022-09-21T16:33:47.268Z,102475.88
2022-09-21T16:37:49.926Z,102472.16
2022-09-21T16:41:54.864Z,102475.03
2022-09-21T16:45:56.335Z,102474.88
2022-09-21T16:50:02.592Z,102474.47
2022-09-21T16:54:04.259Z,102470.47
2022-09-21T16:58:05.783Z,102475.28
2022-09-21T17:02:09.773Z,102483.47
2022-09-21T17:06:19.033Z,102479.38
2022-09-21T17:10:27.163Z,102476.25
2022-09-21T17:14:34.947Z,102473.88
2022-09-21T17:18:36.439Z,102481.38
2022-09-21T17:22:37.997Z,102482.50
2022-09-21T17:31:03.663Z,102482.13
2022-09-21T17:35:17.140Z,102479.19
2022-09-21T17:39:20.316Z,102478.56
2022-09-21T17:43:53.791Z,102478.69
2022-09-21T17:53:55.013Z,102483.38
2022-09-21T17:58:10.275Z,102486.03
2022-09-21T18:02:25.618Z,102480.81
2022-09-21T18:06:27.412Z,102487.09
2022-09-21T18:10:30.088Z,102480.13
2022-09-21T18:14:40.198Z,102482.91
2022-09-21T18:18:55.134Z,102484.81
2022-09-21T18:23:12.144Z,102483.13
2022-09-21T18:32:53.387Z,102486.91
2022-09-21T18:37:00.499Z,102487.97
2022-09-21T18:41:32.284Z,102487.94
2022-09-21T18:45:41.230Z,102489.72
2022-09-21T18:49:54.469Z,102494.22
2022-09-21T18:53:57.136Z,102490.72
2022-09-21T18:58:39.224Z,102489.84
2022-09-21T19:03:28.097Z,102489.94
2022-09-21T19:08:45.425Z,102498.06
2022-09-21T19:13:27.734Z,102503.72
2022-09-21T19:17:38.722Z,102499.00
2022-09-21T19:21:55.363Z,102498.91
2022-09-21T19:26:08.794Z,102508.00
2022-09-21T19:30:14.123Z,102499.03
2022-09-21T19:34:17.768Z,102506.22
2022-09-21T19:44:29.687Z,102505.41
2022-09-21T19:48:46.150Z,102507.19
2022-09-21T19:52:48.018Z,102513.50
2022-09-21T20:01:17.949Z,102512.66
2022-09-21T20:05:32.636Z,102498.38
2022-09-21T20:09:42.964Z,102501.00
2022-09-21T20:14:00.043Z,102505.56
2022-09-21T20:18:19.939Z,102504.69
2022-09-21T20:22:36.344Z,102509.09
2022-09-21T20:26:38.951Z,102505.56
2022-09-21T20:30:40.465Z,102501.06
2022-09-21T20:34:42.174Z,102507.28
2022-09-21T20:38:44.007Z,102495.75
2022-09-21T20:42:45.608Z,102498.38
2022-09-21T20:53:09.356Z,102500.13
2022-09-21T20:57:12.004Z,102502.00
2022-09-21T21:01:13.480Z,102502.88
2022-09-21T21:05:15.033Z,102503.63
2022-09-21T21:09:16.436Z,102504.59
2022-09-21T21:13:17.858Z,102502.91
2022-09-21T21:17:19.455Z,102497.53
2022-09-21T21:21:21.384Z,102504.69
2022-09-21T21:25:22.823Z,102496.66
2022-09-21T21:29:24.252Z,102498.44
2022-09-21T21:33:25.695Z,102489.56
2022-09-21T21:37:27.868Z,102502.88
2022-09-21T21:41:31.104Z,102500.22
2022-09-21T21:45:33.894Z,102495.78
2022-09-21T21:49:35.433Z,102502.91
2022-09-21T21:53:43.110Z,102503.78
2022-09-21T21:57:46.287Z,102495.78
2022-09-21T22:01:47.925Z,102498.44
2022-09-21T22:05:55.677Z,102489.53
2022-09-21T22:21:10.986Z,102497.56
2022-09-21T22:25:12.386Z,102494.00
2022-09-21T22:29:14.788Z,102493.97
2022-09-21T22:33:16.187Z,102495.69
2022-09-21T22:37:17.632Z,102502.41
2022-09-21T22:41:25.292Z,102499.31
2022-09-21T22:45:26.756Z,102496.59
2022-09-21T22:49:28.224Z,102488.56
2022-09-21T22:53:31.366Z,102497.34
2022-09-21T22:57:32.780Z,102495.78
2022-09-21T23:01:37.722Z,102491.34
2022-09-21T23:05:39.412Z,102494.91
2022-09-21T23:09:40.812Z,102487.78
2022-09-21T23:13:42.924Z,102497.56
2022-09-21T23:17:44.393Z,102484.22
2022-09-21T23:21:49.720Z,102485.09
2022-09-21T23:26:01.396Z,102487.75
2022-09-21T23:30:02.929Z,102486.88
2022-09-21T23:34:07.585Z,102485.97
2022-09-21T23:38:09.029Z,102483.31
2022-09-21T23:42:10.528Z,102483.28
2022-09-21T23:46:16.956Z,102474.38
2022-09-21T23:50:18.394Z,102469.94
2022-09-21T23:54:19.795Z,102468.16
2022-09-21T23:58:21.924Z,102472.56
